createdAt,value
2019-04-11T00:00:55.866Z,0.00
2019-04-11T00:01:56.321Z,0.00
2019-04-11T00:02:55.845Z,0.00
2019-04-11T00:03:55.839Z,0.00
2019-04-11T00:04:56.648Z,0.00
2019-04-11T00:05:55.991Z,0.00
2019-04-11T00:06:56.123Z,0.00
2019-04-11T00:07:58.054Z,0.00
2019-04-11T00:08:56.467Z,0.00
2019-04-11T00:09:56.761Z,0.00
2019-04-11T00:10:55.757Z,0.00
2019-04-11T00:11:55.745Z,0.00
2019-04-11T00:12:56.927Z,0.00
2019-04-11T00:13:55.802Z,0.00
2019-04-11T00:14:56.038Z,0.00
2019-04-11T00:15:55.698Z,0.00
2019-04-11T00:16:55.687Z,0.00
2019-04-11T00:17:56.505Z,0.00
2019-04-11T00:18:56.841Z,0.00
2019-04-11T00:19:55.859Z,0.00
2019-04-11T00:20:56.161Z,0.00
2019-04-11T00:21:55.631Z,0.00
2019-04-11T00:22:55.619Z,0.00
2019-04-11T00:23:56.592Z,0.00
2019-04-11T00:24:55.605Z,0.00
2019-04-11T00:25:55.927Z,0.00
2019-04-11T00:26:55.574Z,0.00
2019-04-11T00:27:55.563Z,0.00
2019-04-11T00:28:56.266Z,0.00
2019-04-11T00:29:55.548Z,0.00
2019-04-11T00:30:56.607Z,0.00
2019-04-11T00:31:55.520Z,0.00
2019-04-11T00:32:56.048Z,0.00
2019-04-11T00:33:56.332Z,0.00
2019-04-11T00:34:55.500Z,0.00
2019-04-11T00:35:55.694Z,0.00
2019-04-11T00:36:55.464Z,0.00
2019-04-11T00:37:55.451Z,0.00
2019-04-11T00:38:55.444Z,0.00
2019-04-11T00:39:56.270Z,0.00
2019-04-11T00:40:55.449Z,0.00
2019-04-11T00:41:56.442Z,0.00
2019-04-11T00:42:55.397Z,0.00
2019-04-11T00:43:56.639Z,0.00
2019-04-11T00:44:55.373Z,0.00
2019-04-11T00:45:56.088Z,0.00
2019-04-11T00:46:56.348Z,0.00
2019-04-11T00:47:55.384Z,0.00
2019-04-11T00:48:55.328Z,0.00
2019-04-11T00:49:55.318Z,0.00
2019-04-11T00:50:55.967Z,0.00
2019-04-11T00:51:56.183Z,0.00
2019-04-11T00:52:55.823Z,0.00
2019-04-11T00:53:55.277Z,0.00
2019-04-11T00:54:55.402Z,0.00
2019-04-11T00:55:55.713Z,0.00
2019-04-11T00:56:55.243Z,0.00
2019-04-11T00:57:55.232Z,0.00
2019-04-11T00:58:56.091Z,0.00
2019-04-11T00:59:56.424Z,0.00
2019-04-11T01:00:55.572Z,0.00
2019-04-11T01:01:55.188Z,0.00
2019-04-11T01:02:55.895Z,0.00
2019-04-11T01:03:55.795Z,0.00
2019-04-11T01:04:55.151Z,0.00
2019-04-11T01:05:55.569Z,0.00
2019-04-11T01:06:55.333Z,0.00
2019-04-11T01:07:56.230Z,0.00
2019-04-11T01:08:55.813Z,0.00
2019-04-11T01:09:55.095Z,0.00
2019-04-11T01:10:55.254Z,0.00
2019-04-11T01:11:56.155Z,0.00
2019-04-11T01:12:55.067Z,0.00
2019-04-11T01:13:55.743Z,0.00
2019-04-11T01:14:55.312Z,0.00
2019-04-11T01:15:55.036Z,0.00
2019-04-11T01:16:55.017Z,0.00
2019-04-11T01:17:55.953Z,0.00
2019-04-11T01:18:55.210Z,0.00
2019-04-11T01:19:55.297Z,0.00
2019-04-11T01:20:55.694Z,0.00
2019-04-11T01:21:55.067Z,0.00
2019-04-11T01:22:54.951Z,0.00
2019-04-11T01:23:55.454Z,0.00
2019-04-11T01:24:55.760Z,0.00
2019-04-11T01:25:55.008Z,0.00
2019-04-11T01:26:54.914Z,0.00
2019-04-11T01:27:54.900Z,0.00
2019-04-11T01:28:55.397Z,0.00
2019-04-11T01:29:55.697Z,0.00
2019-04-11T01:30:55.491Z,0.00
2019-04-11T01:31:54.858Z,0.00
2019-04-11T01:32:54.954Z,0.00
2019-04-11T01:33:55.978Z,0.00
2019-04-11T01:34:55.094Z,0.00
2019-04-11T01:35:55.390Z,0.00
2019-04-11T01:36:55.489Z,0.00
2019-04-11T01:37:55.731Z,0.00
2019-04-11T01:38:54.828Z,0.00
2019-04-11T01:39:54.768Z,0.00
2019-04-11T01:40:54.750Z,0.00
2019-04-11T01:41:55.169Z,0.00
2019-04-11T01:42:55.516Z,0.00
2019-04-11T01:44:00.937Z,0.00
2019-04-11T01:44:56.789Z,0.00
2019-04-11T01:45:55.916Z,0.00
2019-04-11T01:46:54.690Z,0.00
2019-04-11T01:47:55.292Z,0.00
2019-04-11T01:48:55.612Z,0.00
2019-04-11T01:49:54.648Z,0.00
2019-04-11T01:50:54.638Z,0.00
2019-04-11T01:51:54.634Z,0.00
2019-04-11T01:52:55.022Z,0.00
2019-04-11T01:53:55.342Z,0.00
2019-04-11T01:54:54.592Z,0.00
2019-04-11T01:55:54.712Z,0.00
2019-04-11T01:56:55.736Z,0.00
2019-04-11T01:57:54.558Z,0.00
2019-04-11T01:58:55.245Z,0.00
2019-04-11T01:59:55.552Z,0.00
2019-04-11T02:00:54.743Z,0.00
2019-04-11T02:01:54.883Z,0.00
2019-04-11T02:02:54.897Z,0.00
2019-04-11T02:03:55.283Z,0.00
2019-04-11T02:04:54.481Z,0.00
2019-04-11T02:05:54.470Z,0.00
2019-04-11T02:06:54.459Z,0.00
2019-04-11T02:07:55.290Z,0.00
2019-04-11T02:08:55.558Z,0.00
2019-04-11T02:09:54.746Z,0.00
2019-04-11T02:10:54.414Z,0.00
2019-04-11T02:11:54.403Z,0.00
2019-04-11T02:12:55.292Z,0.00
2019-04-11T02:14:05.177Z,0.00
2019-04-11T02:14:55.598Z,0.00
2019-04-11T02:15:56.796Z,0.00
2019-04-11T02:16:54.346Z,0.00
2019-04-11T02:17:55.035Z,0.00
2019-04-11T02:18:54.325Z,0.00
2019-04-11T02:19:54.454Z,0.00
2019-04-11T02:20:55.495Z,0.00
2019-04-11T02:21:54.293Z,0.00
2019-04-11T02:22:54.944Z,0.00
2019-04-11T02:23:55.236Z,0.00
2019-04-11T02:24:54.361Z,0.00
2019-04-11T02:25:54.535Z,0.00
2019-04-11T02:26:54.622Z,0.00
2019-04-11T02:27:54.232Z,0.00
2019-04-11T02:28:55.187Z,0.00
2019-04-11T02:29:55.125Z,0.00
2019-04-11T02:30:55.847Z,0.00
2019-04-11T02:31:54.974Z,0.00
2019-04-11T02:32:54.187Z,0.00
2019-04-11T02:33:55.235Z,0.00
2019-04-11T02:34:57.087Z,0.00
2019-04-11T02:35:56.461Z,0.00
2019-04-11T02:36:55.843Z,0.00
2019-04-11T02:37:54.878Z,0.00
2019-04-11T02:38:57.486Z,0.00
2019-04-11T02:39:56.001Z,0.00
2019-04-11T02:40:55.135Z,0.00
2019-04-11T02:41:54.930Z,0.00
2019-04-11T02:42:54.882Z,0.00
2019-04-11T02:43:55.059Z,0.00
2019-04-11T02:45:10.905Z,0.00
2019-04-11T02:46:09.070Z,0.00
2019-04-11T02:47:01.842Z,0.00
2019-04-11T02:47:56.403Z,0.00
2019-04-11T02:48:54.494Z,0.00
2019-04-11T02:49:55.084Z,0.00
2019-04-11T02:50:54.309Z,0.00
2019-04-11T02:51:55.730Z,0.00
2019-04-11T02:52:54.042Z,0.00
2019-04-11T02:53:54.979Z,0.00
2019-04-11T02:54:54.519Z,0.00
2019-04-11T02:55:54.337Z,0.00
2019-04-11T02:56:54.838Z,0.00
2019-04-11T02:57:54.329Z,0.00
2019-04-11T02:58:54.556Z,0.00
2019-04-11T02:59:56.095Z,0.00
2019-04-11T03:00:55.905Z,0.00
2019-04-11T03:01:53.845Z,0.00
2019-04-11T03:02:53.842Z,0.00
2019-04-11T03:03:54.133Z,0.00
2019-04-11T03:04:55.608Z,0.00
2019-04-11T03:05:55.432Z,0.00
2019-04-11T03:06:55.024Z,0.00
2019-04-11T03:07:54.097Z,0.00
2019-04-11T03:08:55.055Z,0.00
2019-04-11T03:09:55.731Z,0.00
2019-04-11T03:10:55.622Z,0.00
2019-04-11T03:11:54.633Z,0.00
2019-04-11T03:12:54.594Z,0.00
2019-04-11T03:13:54.862Z,0.00
2019-04-11T03:15:09.246Z,0.00
2019-04-11T03:16:10.134Z,0.00
2019-04-11T03:17:02.472Z,0.00
2019-04-11T03:17:59.186Z,0.00
2019-04-11T03:19:12.994Z,0.00
2019-04-11T03:20:08.293Z,0.00
2019-04-11T03:20:57.690Z,0.00
2019-04-11T03:21:56.586Z,0.00
2019-04-11T03:22:58.205Z,0.00
2019-04-11T03:23:56.064Z,0.00
2019-04-11T03:24:55.398Z,0.00
2019-04-11T03:25:54.371Z,0.00
2019-04-11T03:26:54.912Z,0.00
2019-04-11T03:27:54.169Z,0.00
2019-04-11T03:28:56.206Z,0.00
2019-04-11T03:29:54.219Z,0.00
2019-04-11T03:31:06.812Z,0.00
2019-04-11T03:33:58.117Z,0.00
2019-04-11T03:34:37.724Z,0.00
2019-04-11T03:36:00.270Z,0.00
2019-04-11T03:38:18.430Z,0.00
2019-04-11T03:39:15.631Z,0.00
2019-04-11T03:40:15.146Z,0.00
2019-04-11T03:41:12.225Z,0.00
2019-04-11T03:42:13.001Z,0.00
2019-04-11T03:43:09.369Z,0.00
2019-04-11T03:44:04.302Z,0.00
2019-04-11T03:45:15.218Z,0.00
2019-04-11T03:46:14.232Z,0.00
2019-04-11T03:47:11.184Z,0.00
2019-04-11T03:48:10.091Z,0.00
2019-04-11T03:49:03.887Z,0.00
2019-04-11T03:50:01.718Z,0.00
2019-04-11T03:50:57.134Z,0.00
2019-04-11T03:51:54.882Z,0.00
2019-04-11T03:52:54.057Z,0.00
2019-04-11T03:53:53.636Z,0.00
2019-04-11T03:54:53.992Z,0.00
2019-04-11T03:55:53.786Z,0.00
2019-04-11T03:56:53.800Z,0.00
2019-04-11T03:57:55.971Z,0.00
2019-04-11T03:58:53.536Z,0.00
2019-04-11T03:59:54.536Z,0.00
2019-04-11T04:00:56.872Z,0.00
2019-04-11T04:01:54.921Z,0.00
2019-04-11T04:02:55.121Z,0.00
2019-04-11T04:03:54.227Z,0.00
2019-04-11T04:04:53.938Z,0.00
2019-04-11T04:05:54.915Z,0.00
2019-04-11T04:06:53.122Z,0.00
2019-04-11T04:07:55.014Z,0.00
2019-04-11T04:08:55.244Z,0.00
2019-04-11T04:09:53.733Z,0.00
2019-04-11T04:10:53.665Z,0.00
2019-04-11T04:11:54.557Z,0.00
2019-04-11T04:12:53.652Z,0.00
2019-04-11T04:13:53.930Z,0.00
2019-04-11T04:14:53.936Z,0.00
2019-04-11T04:16:02.768Z,0.00
2019-04-11T04:16:56.487Z,0.00
2019-04-11T04:17:55.242Z,4.00
2019-04-11T04:18:54.196Z,0.00
2019-04-11T04:19:54.295Z,0.00
2019-04-11T04:20:53.334Z,4.00
2019-04-11T04:21:53.291Z,0.00
2019-04-11T04:22:54.403Z,4.00
2019-04-11T04:23:54.598Z,4.00
2019-04-11T04:24:53.847Z,8.00
2019-04-11T04:25:54.326Z,8.00
2019-04-11T04:26:54.620Z,8.00
2019-04-11T04:27:54.266Z,8.00
2019-04-11T04:28:53.478Z,8.00
2019-04-11T04:29:57.263Z,12.00
2019-04-11T04:30:54.465Z,16.00
2019-04-11T04:31:53.262Z,16.00
2019-04-11T04:32:54.592Z,20.00
2019-04-11T04:33:53.464Z,24.00
2019-04-11T04:34:53.272Z,24.00
2019-04-11T04:35:53.151Z,32.00
2019-04-11T04:36:53.749Z,36.00
2019-04-11T04:37:54.411Z,40.00
2019-04-11T04:38:52.767Z,44.00
2019-04-11T04:40:14.863Z,52.00
2019-04-11T04:41:07.357Z,56.00
2019-04-11T04:42:01.225Z,64.00
2019-04-11T04:42:56.245Z,72.00
2019-04-11T04:43:54.663Z,84.00
2019-04-11T04:44:53.881Z,92.00
2019-04-11T04:46:08.741Z,100.00
2019-04-11T04:47:07.789Z,112.00
2019-04-11T04:47:58.866Z,120.00
2019-04-11T04:48:54.012Z,136.00
2019-04-11T04:49:54.214Z,148.00
2019-04-11T04:50:55.031Z,160.00
2019-04-11T04:51:53.325Z,172.00
2019-04-11T04:52:53.611Z,188.00
2019-04-11T04:53:52.604Z,208.00
2019-04-11T04:54:53.379Z,220.00
2019-04-11T04:55:54.245Z,240.00
2019-04-11T04:56:54.421Z,252.00
2019-04-11T04:57:53.246Z,276.00
2019-04-11T04:58:53.959Z,292.00
2019-04-11T04:59:53.229Z,312.00
2019-04-11T05:00:54.214Z,328.00
2019-04-11T05:01:53.263Z,348.00
2019-04-11T05:02:52.502Z,368.00
2019-04-11T05:03:54.047Z,392.00
2019-04-11T05:04:54.164Z,412.00
2019-04-11T05:05:52.998Z,432.00
2019-04-11T05:06:54.052Z,456.00
2019-04-11T05:07:53.915Z,476.00
2019-04-11T05:08:52.435Z,496.00
2019-04-11T05:09:52.423Z,520.00
2019-04-11T05:10:53.483Z,544.00
2019-04-11T05:11:53.091Z,568.00
2019-04-11T05:12:52.392Z,596.00
2019-04-11T05:13:52.378Z,620.00
2019-04-11T05:14:54.033Z,644.00
2019-04-11T05:16:04.696Z,668.00
2019-04-11T05:16:54.574Z,692.00
2019-04-11T05:17:53.353Z,720.00
2019-04-11T05:18:52.557Z,748.00
2019-04-11T05:19:52.312Z,776.00
2019-04-11T05:20:52.764Z,816.00
2019-04-11T05:21:52.291Z,868.00
2019-04-11T05:22:52.431Z,928.00
2019-04-11T05:23:52.267Z,992.00
2019-04-11T05:24:52.255Z,1052.00
2019-04-11T05:25:53.027Z,1104.00
2019-04-11T05:26:52.337Z,1152.00
2019-04-11T05:27:52.228Z,1192.00
2019-04-11T05:28:52.989Z,1232.00
2019-04-11T05:29:52.200Z,1272.00
2019-04-11T05:30:53.201Z,1316.00
2019-04-11T05:31:52.180Z,1360.00
2019-04-11T05:32:52.207Z,1396.00
2019-04-11T05:33:52.156Z,1440.00
2019-04-11T05:34:53.081Z,1484.00
2019-04-11T05:35:52.184Z,1516.00
2019-04-11T05:36:53.269Z,1548.00
2019-04-11T05:37:52.118Z,1580.00
2019-04-11T05:38:52.680Z,1612.00
2019-04-11T05:39:52.529Z,1644.00
2019-04-11T05:40:52.400Z,1676.00
2019-04-11T05:41:52.076Z,1712.00
2019-04-11T05:42:54.217Z,1740.00
2019-04-11T05:43:52.043Z,1764.00
2019-04-11T05:44:52.040Z,1784.00
2019-04-11T05:45:54.712Z,1804.00
2019-04-11T05:46:57.249Z,1824.00
2019-04-11T05:47:54.961Z,1836.00
2019-04-11T05:48:54.989Z,1868.00
2019-04-11T05:49:52.975Z,1888.00
2019-04-11T05:50:52.965Z,1908.00
2019-04-11T05:51:55.708Z,1936.00
2019-04-11T05:52:52.942Z,1924.00
2019-04-11T05:53:54.458Z,1916.00
2019-04-11T05:54:52.555Z,1940.00
2019-04-11T05:55:53.092Z,1960.00
2019-04-11T05:56:55.194Z,1980.00
2019-04-11T05:57:52.886Z,2004.00
2019-04-11T05:58:51.877Z,2052.00
2019-04-11T05:59:54.392Z,2092.00
2019-04-11T06:00:53.258Z,2112.00
2019-04-11T06:01:53.010Z,2140.00
2019-04-11T06:02:53.231Z,2128.00
2019-04-11T06:03:52.536Z,2132.00
2019-04-11T06:04:55.918Z,2176.00
2019-04-11T06:05:52.080Z,2256.00
2019-04-11T06:06:52.802Z,2312.00
2019-04-11T06:07:55.627Z,2388.00
2019-04-11T06:08:54.161Z,2420.00
2019-04-11T06:09:52.753Z,2540.00
2019-04-11T06:10:52.519Z,2772.00
2019-04-11T06:11:54.452Z,2744.00
2019-04-11T06:12:52.624Z,2788.00
2019-04-11T06:13:51.712Z,3028.00
2019-04-11T06:14:51.701Z,3628.00
2019-04-11T06:15:51.691Z,3968.00
2019-04-11T06:16:55.266Z,4232.00
2019-04-11T06:17:51.675Z,3900.00
2019-04-11T06:18:52.228Z,3192.00
2019-04-11T06:19:51.673Z,3136.00
2019-04-11T06:20:51.634Z,3232.00
2019-04-11T06:21:52.599Z,3288.00
2019-04-11T06:22:51.619Z,3324.00
2019-04-11T06:23:51.828Z,3280.00
2019-04-11T06:24:52.284Z,3216.00
2019-04-11T06:25:51.578Z,3268.00
2019-04-11T06:26:51.565Z,3360.00
2019-04-11T06:27:51.599Z,3392.00
2019-04-11T06:28:53.963Z,3420.00
2019-04-11T06:29:52.878Z,3460.00
2019-04-11T06:30:52.656Z,3820.00
2019-04-11T06:31:51.629Z,4528.00
2019-04-11T06:32:52.078Z,4340.00
2019-04-11T06:33:51.510Z,3716.00
2019-04-11T06:34:51.479Z,3904.00
2019-04-11T06:35:52.429Z,4580.00
2019-04-11T06:36:51.456Z,4420.00
2019-04-11T06:37:52.194Z,4192.00
2019-04-11T06:38:51.434Z,4144.00
2019-04-11T06:39:51.613Z,3968.00
2019-04-11T06:40:52.464Z,3956.00
2019-04-11T06:41:51.403Z,4000.00
2019-04-11T06:42:51.706Z,4100.00
2019-04-11T06:43:52.127Z,4276.00
2019-04-11T06:44:52.164Z,4324.00
2019-04-11T06:45:52.417Z,4252.00
2019-04-11T06:46:54.842Z,4148.00
2019-04-11T06:47:53.159Z,4136.00
2019-04-11T06:48:51.320Z,4160.00
2019-04-11T06:49:51.310Z,4156.00
2019-04-11T06:50:51.366Z,4160.00
2019-04-11T06:51:53.398Z,4192.00
2019-04-11T06:52:51.286Z,4200.00
2019-04-11T06:53:51.264Z,4200.00
2019-04-11T06:54:52.374Z,4300.00
2019-04-11T06:55:51.243Z,4352.00
2019-04-11T06:56:52.281Z,4408.00
2019-04-11T06:57:51.248Z,4536.00
2019-04-11T06:58:53.549Z,4576.00
2019-04-11T06:59:52.378Z,4588.00
2019-04-11T07:00:51.713Z,4656.00
2019-04-11T07:01:51.191Z,4652.00
2019-04-11T07:02:51.165Z,4596.00
2019-04-11T07:03:51.165Z,4544.00
2019-04-11T07:04:51.774Z,4524.00
2019-04-11T07:05:51.129Z,4512.00
2019-04-11T07:06:51.751Z,4544.00
2019-04-11T07:07:51.622Z,4592.00
2019-04-11T07:08:51.208Z,4588.00
2019-04-11T07:09:51.206Z,4604.00
2019-04-11T07:10:51.197Z,4556.00
2019-04-11T07:11:51.062Z,4572.00
2019-04-11T07:12:53.012Z,4644.00
2019-04-11T07:13:51.055Z,4636.00
2019-04-11T07:14:51.029Z,4660.00
2019-04-11T07:15:51.021Z,4680.00
2019-04-11T07:16:59.627Z,4696.00
2019-04-11T07:17:52.531Z,4680.00
2019-04-11T07:18:50.997Z,4684.00
2019-04-11T07:19:51.524Z,4680.00
2019-04-11T07:20:52.385Z,4716.00
2019-04-11T07:21:51.058Z,4720.00
2019-04-11T07:22:51.028Z,4760.00
2019-04-11T07:23:51.494Z,4796.00
2019-04-11T07:24:50.918Z,4848.00
2019-04-11T07:25:51.762Z,4876.00
2019-04-11T07:26:52.077Z,4904.00
2019-04-11T07:27:50.885Z,4968.00
2019-04-11T07:28:50.882Z,5040.00
2019-04-11T07:29:50.860Z,5108.00
2019-04-11T07:30:50.852Z,5140.00
2019-04-11T07:31:50.840Z,5176.00
2019-04-11T07:32:50.870Z,5172.00
2019-04-11T07:33:51.844Z,5224.00
2019-04-11T07:34:52.183Z,5244.00
2019-04-11T07:35:50.846Z,5268.00
2019-04-11T07:36:50.785Z,5296.00
2019-04-11T07:37:51.115Z,5316.00
2019-04-11T07:38:52.231Z,5288.00
2019-04-11T07:39:51.634Z,5296.00
2019-04-11T07:40:51.850Z,5388.00
2019-04-11T07:41:52.089Z,5628.00
2019-04-11T07:42:52.823Z,5520.00
2019-04-11T07:43:50.721Z,5500.00
2019-04-11T07:44:51.720Z,5556.00
2019-04-11T07:45:51.261Z,5568.00
2019-04-11T07:46:51.562Z,5592.00
2019-04-11T07:47:50.663Z,5664.00
2019-04-11T07:48:50.650Z,5724.00
2019-04-11T07:49:53.414Z,5812.00
2019-04-11T07:50:51.582Z,5884.00
2019-04-11T07:51:50.850Z,5924.00
2019-04-11T07:52:51.585Z,5944.00
2019-04-11T07:53:50.598Z,5984.00
2019-04-11T07:54:51.399Z,5988.00
2019-04-11T07:55:51.008Z,5972.00
2019-04-11T07:56:50.729Z,5960.00
2019-04-11T07:57:50.549Z,6000.00
2019-04-11T07:58:50.540Z,5976.00
2019-04-11T07:59:51.222Z,5988.00
2019-04-11T08:00:52.906Z,6048.00
2019-04-11T08:01:50.648Z,6120.00
2019-04-11T08:02:50.495Z,6184.00
2019-04-11T08:03:51.292Z,6216.00
2019-04-11T08:04:50.485Z,6248.00
2019-04-11T08:05:50.461Z,6332.00
2019-04-11T08:06:50.456Z,6448.00
2019-04-11T08:07:51.433Z,6476.00
2019-04-11T08:08:51.414Z,6544.00
2019-04-11T08:09:50.639Z,6604.00
2019-04-11T08:10:50.604Z,6660.00
2019-04-11T08:11:50.397Z,6780.00
2019-04-11T08:12:50.384Z,6796.00
2019-04-11T08:13:53.111Z,6908.00
2019-04-11T08:14:51.095Z,7016.00
2019-04-11T08:15:50.347Z,7072.00
2019-04-11T08:16:51.097Z,7156.00
2019-04-11T08:17:50.327Z,7216.00
2019-04-11T08:18:50.930Z,7404.00
2019-04-11T08:19:51.244Z,7500.00
2019-04-11T08:20:50.294Z,7556.00
2019-04-11T08:21:50.449Z,7600.00
2019-04-11T08:22:51.475Z,7676.00
2019-04-11T08:23:50.262Z,7888.00
2019-04-11T08:24:51.043Z,8108.00
2019-04-11T08:25:50.322Z,8460.00
2019-04-11T08:26:50.502Z,8216.00
2019-04-11T08:27:58.313Z,8156.00
2019-04-11T08:29:01.354Z,8184.00
2019-04-11T08:29:52.012Z,7916.00
2019-04-11T08:30:50.952Z,8172.00
2019-04-11T08:31:51.519Z,8660.00
2019-04-11T08:32:50.160Z,8588.00
2019-04-11T08:33:50.960Z,8324.00
2019-04-11T08:34:51.296Z,8852.00
2019-04-11T08:35:52.023Z,9028.00
2019-04-11T08:36:50.563Z,10116.00
2019-04-11T08:37:50.102Z,11320.00
2019-04-11T08:38:50.866Z,10336.00
2019-04-11T08:39:50.130Z,8924.00
2019-04-11T08:40:51.287Z,8368.00
2019-04-11T08:41:50.118Z,8772.00
2019-04-11T08:42:50.855Z,9152.00
2019-04-11T08:43:51.189Z,9632.00
2019-04-11T08:44:50.220Z,11880.00
2019-04-11T08:45:50.637Z,10832.00
2019-04-11T08:46:51.051Z,10156.00
2019-04-11T08:47:54.621Z,11480.00
2019-04-11T08:48:51.305Z,10936.00
2019-04-11T08:49:50.212Z,10488.00
2019-04-11T08:50:50.434Z,14176.00
2019-04-11T08:51:49.951Z,18336.00
2019-04-11T08:52:49.960Z,20192.00
2019-04-11T08:53:50.935Z,14284.00
2019-04-11T08:54:50.204Z,11696.00
2019-04-11T08:55:55.296Z,12864.00
2019-04-11T08:56:51.521Z,8960.00
2019-04-11T08:57:49.974Z,9568.00
2019-04-11T08:58:50.835Z,13232.00
2019-04-11T08:59:49.860Z,13508.00
2019-04-11T09:00:51.101Z,14908.00
2019-04-11T09:01:49.832Z,15640.00
2019-04-11T09:02:49.825Z,16208.00
2019-04-11T09:03:59.785Z,28992.00
2019-04-11T09:05:02.735Z,24768.00
2019-04-11T09:05:51.303Z,13232.00
2019-04-11T09:06:49.777Z,12512.00
2019-04-11T09:07:49.880Z,42112.00
2019-04-11T09:08:50.974Z,12824.00
2019-04-11T09:09:49.772Z,13096.00
2019-04-11T09:10:50.748Z,48320.00
2019-04-11T09:11:49.812Z,45472.00
2019-04-11T09:12:50.882Z,28832.00
2019-04-11T09:13:49.698Z,60256.00
2019-04-11T09:14:50.612Z,27136.00
2019-04-11T09:15:50.851Z,27968.00
2019-04-11T09:16:49.958Z,56448.00
2019-04-11T09:17:58.972Z,67072.00
2019-04-11T09:18:50.647Z,65792.00
2019-04-11T09:19:49.635Z,66400.00
2019-04-11T09:20:49.649Z,67616.00
2019-04-11T09:21:50.762Z,66016.00
2019-04-11T09:22:49.601Z,60640.00
2019-04-11T09:23:50.175Z,56448.00
2019-04-11T09:24:50.562Z,56256.00
2019-04-11T09:25:51.730Z,58336.00
2019-04-11T09:26:49.883Z,59808.00
2019-04-11T09:27:49.543Z,59968.00
2019-04-11T09:28:49.595Z,59936.00
2019-04-11T09:29:50.363Z,62112.00
2019-04-11T09:30:49.509Z,65344.00
2019-04-11T09:31:49.571Z,63424.00
2019-04-11T09:32:50.651Z,69088.00
2019-04-11T09:33:49.476Z,69152.00
2019-04-11T09:34:50.128Z,66880.00
2019-04-11T09:35:49.454Z,63616.00
2019-04-11T09:36:49.453Z,61376.00
2019-04-11T09:37:49.671Z,63360.00
2019-04-11T09:38:50.661Z,66080.00
2019-04-11T09:39:49.415Z,67872.00
2019-04-11T09:40:50.147Z,70176.00
2019-04-11T09:41:49.401Z,72192.00
2019-04-11T09:42:49.378Z,72608.00
2019-04-11T09:43:50.479Z,70400.00
2019-04-11T09:44:49.371Z,65536.00
2019-04-11T09:45:50.867Z,66624.00
2019-04-11T09:46:50.529Z,66848.00
2019-04-11T09:47:49.835Z,71072.00
2019-04-11T09:48:50.389Z,68896.00
2019-04-11T09:49:49.424Z,65184.00
2019-04-11T09:50:49.289Z,73248.00
2019-04-11T09:51:49.876Z,76032.00
2019-04-11T09:52:49.615Z,71744.00
2019-04-11T09:53:49.257Z,65216.00
2019-04-11T09:54:50.490Z,79008.00
2019-04-11T09:55:50.044Z,14996.00
2019-04-11T09:56:49.236Z,76800.00
2019-04-11T09:57:50.307Z,74848.00
2019-04-11T09:58:49.717Z,73472.00
2019-04-11T09:59:49.723Z,74304.00
2019-04-11T10:00:49.180Z,77632.00
2019-04-11T10:01:49.611Z,29056.00
2019-04-11T10:02:50.459Z,17824.00
2019-04-11T10:03:49.146Z,20032.00
2019-04-11T10:04:50.191Z,81248.00
2019-04-11T10:05:50.313Z,34400.00
2019-04-11T10:06:49.115Z,76032.00
2019-04-11T10:07:50.215Z,71904.00
2019-04-11T10:08:49.225Z,79104.00
2019-04-11T10:09:50.421Z,81600.00
2019-04-11T10:10:49.069Z,79936.00
2019-04-11T10:11:49.061Z,79360.00
2019-04-11T10:12:49.079Z,14116.00
2019-04-11T10:13:49.149Z,13032.00
2019-04-11T10:14:50.094Z,13964.00
2019-04-11T10:15:49.016Z,17376.00
2019-04-11T10:16:49.006Z,73600.00
2019-04-11T10:17:49.003Z,77504.00
2019-04-11T10:18:49.515Z,77120.00
2019-04-11T10:19:48.972Z,54272.00
2019-04-11T10:20:48.964Z,22048.00
2019-04-11T10:21:49.968Z,18272.00
2019-04-11T10:22:49.101Z,17760.00
2019-04-11T10:23:49.295Z,17312.00
2019-04-11T10:24:48.917Z,17120.00
2019-04-11T10:25:49.734Z,17056.00
2019-04-11T10:26:49.984Z,17088.00
2019-04-11T10:27:49.070Z,17120.00
2019-04-11T10:28:49.580Z,17472.00
2019-04-11T10:29:48.865Z,22848.00
2019-04-11T10:30:48.870Z,55648.00
2019-04-11T10:31:48.843Z,74880.00
2019-04-11T10:32:49.689Z,74848.00
2019-04-11T10:33:49.054Z,77760.00
2019-04-11T10:34:49.967Z,80256.00
2019-04-11T10:35:48.799Z,77664.00
2019-04-11T10:36:49.573Z,76800.00
2019-04-11T10:37:49.802Z,77440.00
2019-04-11T10:38:48.893Z,75296.00
2019-04-11T10:39:49.265Z,74112.00
2019-04-11T10:40:48.746Z,73920.00
2019-04-11T10:41:49.150Z,74656.00
2019-04-11T10:42:48.779Z,75872.00
2019-04-11T10:43:49.622Z,79488.00
2019-04-11T10:44:49.822Z,80352.00
2019-04-11T10:45:48.997Z,78720.00
2019-04-11T10:46:49.533Z,78016.00
2019-04-11T10:47:49.297Z,80128.00
2019-04-11T10:48:50.287Z,78496.00
2019-04-11T10:49:48.650Z,78144.00
2019-04-11T10:50:48.708Z,81152.00
2019-04-11T10:51:49.730Z,78336.00
2019-04-11T10:52:48.922Z,73824.00
2019-04-11T10:53:49.221Z,72768.00
2019-04-11T10:54:49.158Z,76320.00
2019-04-11T10:55:49.576Z,78080.00
2019-04-11T10:56:49.546Z,79168.00
2019-04-11T10:57:48.744Z,81824.00
2019-04-11T10:58:49.056Z,81984.00
2019-04-11T10:59:49.044Z,82208.00
2019-04-11T11:00:48.537Z,82976.00
2019-04-11T11:01:48.567Z,80640.00
2019-04-11T11:02:49.381Z,76000.00
2019-04-11T11:03:49.346Z,76992.00
2019-04-11T11:04:48.573Z,75808.00
2019-04-11T11:05:49.332Z,77664.00
2019-04-11T11:06:48.473Z,79200.00
2019-04-11T11:07:48.906Z,81536.00
2019-04-11T11:08:48.460Z,83168.00
2019-04-11T11:09:48.451Z,84960.00
2019-04-11T11:10:48.432Z,84320.00
2019-04-11T11:11:48.500Z,84448.00
2019-04-11T11:12:49.554Z,84192.00
2019-04-11T11:13:48.410Z,85152.00
2019-04-11T11:14:49.047Z,85504.00
2019-04-11T11:15:49.711Z,81824.00
2019-04-11T11:16:48.678Z,82336.00
2019-04-11T11:18:20.266Z,79232.00
2019-04-11T11:19:21.125Z,83200.00
2019-04-11T11:19:59.323Z,82816.00
2019-04-11T11:20:55.233Z,83488.00
2019-04-11T11:21:49.317Z,84704.00
2019-04-11T11:22:48.308Z,86400.00
2019-04-11T11:23:49.284Z,83872.00
2019-04-11T11:24:48.286Z,83744.00
2019-04-11T11:25:50.025Z,80576.00
2019-04-11T11:26:52.082Z,76128.00
2019-04-11T11:27:50.286Z,74080.00
2019-04-11T11:28:48.778Z,73376.00
2019-04-11T11:29:48.404Z,74080.00
2019-04-11T11:30:49.484Z,75488.00
2019-04-11T11:31:49.196Z,78208.00
2019-04-11T11:32:48.205Z,81664.00
2019-04-11T11:33:49.022Z,83232.00
2019-04-11T11:34:51.271Z,82528.00
2019-04-11T11:35:48.173Z,84352.00
2019-04-11T11:36:48.162Z,87008.00
2019-04-11T11:37:49.231Z,85088.00
2019-04-11T11:38:48.143Z,84352.00
2019-04-11T11:39:49.095Z,81344.00
2019-04-11T11:40:48.120Z,78912.00
2019-04-11T11:41:48.956Z,77824.00
2019-04-11T11:42:48.099Z,79552.00
2019-04-11T11:43:48.798Z,82208.00
2019-04-11T11:44:48.824Z,86432.00
2019-04-11T11:45:51.894Z,86304.00
2019-04-11T11:46:50.068Z,84256.00
2019-04-11T11:47:49.032Z,81312.00
2019-04-11T11:48:52.241Z,79968.00
2019-04-11T11:49:57.015Z,47712.00
2019-04-11T11:50:50.580Z,17056.00
2019-04-11T11:51:48.009Z,15456.00
2019-04-11T11:52:48.951Z,15192.00
2019-04-11T11:53:49.004Z,15120.00
2019-04-11T11:54:48.215Z,15184.00
2019-04-11T11:55:47.967Z,15428.00
2019-04-11T11:56:48.933Z,17280.00
2019-04-11T11:57:47.945Z,49152.00
2019-04-11T11:58:53.442Z,80000.00
2019-04-11T11:59:48.933Z,82272.00
2019-04-11T12:00:50.050Z,79744.00
2019-04-11T12:01:50.766Z,77728.00
2019-04-11T12:02:49.120Z,74432.00
2019-04-11T12:03:48.760Z,72960.00
2019-04-11T12:04:48.501Z,69312.00
2019-04-11T12:05:50.224Z,66656.00
2019-04-11T12:06:49.597Z,66080.00
2019-04-11T12:07:47.841Z,67584.00
2019-04-11T12:08:49.316Z,71744.00
2019-04-11T12:09:48.837Z,75264.00
2019-04-11T12:10:47.811Z,77504.00
2019-04-11T12:11:48.523Z,78368.00
2019-04-11T12:12:48.440Z,77952.00
2019-04-11T12:13:47.780Z,77984.00
2019-04-11T12:14:47.887Z,76864.00
2019-04-11T12:15:48.959Z,73024.00
2019-04-11T12:16:48.616Z,69120.00
2019-04-11T12:17:49.021Z,71488.00
2019-04-11T12:18:50.338Z,73696.00
2019-04-11T12:19:53.351Z,75776.00
2019-04-11T12:20:49.353Z,75936.00
2019-04-11T12:21:48.914Z,74688.00
2019-04-11T12:22:49.558Z,75296.00
2019-04-11T12:23:57.982Z,73504.00
2019-04-11T12:24:48.668Z,73856.00
2019-04-11T12:25:47.668Z,74592.00
2019-04-11T12:26:48.661Z,72128.00
2019-04-11T12:27:47.777Z,73728.00
2019-04-11T12:28:47.924Z,74528.00